メインページ
METAR-TAF:

METAR-TAF

空港 :

リンデン・ピンドリング国際空港

ナッソー, バハマ

緯度: 25-03N, 経度: 077-28W, 海抜: 3m

現時点の気象観測

当レポートは1時間52分前の06:00(UTC)に作成
の風 6kt
気温 27°C
湿度 84%
気圧 1017 hPa
視程10km以上
高度2000ftの雲はほとんどない

METAR: MYNN 190600Z 17006KT 9999 FEW020 27/24 A3002

時間: 03:52 (07:52 UTC)

予報

当レポートは3時間12分前の04:40(UTC)に作成
予報は19日の 06時(UTC)から 20日の 06時(UTC)まで有効
の風 5kt
視程10km以上
高度2200ftの雲はほとんどない
近辺で激しい雷雨
確率 30% :
19日の 11時(UTC)から 19日の 17時(UTC)まで一時的に
南/南東の風 10kt、最大20ktの突風を伴う
視程: 8000m
高度1500ftの雲は散在している, 積乱雲.
高度1800ftの千切れ雲あり
激しい雷雨, 雨

TAF: MYNN 190440Z 1906/2006 17005KT 9999 VCTS FEW022 PROB30 TEMPO 1911/1917 15010G20KT 8000 TSRA SCT015CB BKN018

4,000以上の空港の気象観測と天気予報(METAR報とTAF報)

利用可能な観測所は地図上に黄色い丸と赤い丸で示す。

丸の上にカーソルを重ねると観測所名を参照できる。

次にクリックすると気象観測と天気予報を参照できる。

マップの切り替え:黒色「×」印の緑ボタンをクリックして拡大、「-」印の緑ボタンをクリックして縮小、緑色の三角印をクリックして隣りの地図に切り替え


METAR-TAF: